sensor_id;sensor_type;location;lat;lon;timestamp;noise_LAeq;noise_LA_min;noise_LA_max;noise_LA01;noise_LA95
66399;Laerm;54877;51.504;3.894;2023-04-01T00:01:03;35.62;33.95;52.22;;
66399;Laerm;54877;51.504;3.894;2023-04-01T00:03:29;35.42;34.03;36.71;;
66399;Laerm;54877;51.504;3.894;2023-04-01T00:05:56;35.50;33.86;40.09;;
66399;Laerm;54877;51.504;3.894;2023-04-01T00:08:22;35.46;33.66;37.31;;
66399;Laerm;54877;51.504;3.894;2023-04-01T00:10:48;36.01;34.16;49.96;;
66399;Laerm;54877;51.504;3.894;2023-04-01T00:13:13;35.49;33.81;40.76;;
66399;Laerm;54877;51.504;3.894;2023-04-01T00:15:39;36.23;33.99;64.56;;
66399;Laerm;54877;51.504;3.894;2023-04-01T00:18:05;35.46;34.03;36.80;;
66399;Laerm;54877;51.504;3.894;2023-04-01T00:20:31;36.01;33.71;63.29;;
66399;Laerm;54877;51.504;3.894;2023-04-01T00:22:57;35.42;33.83;36.95;;
66399;Laerm;54877;51.504;3.894;2023-04-01T00:25:22;35.42;34.03;36.75;;
66399;Laerm;54877;51.504;3.894;2023-04-01T00:27:48;35.50;33.80;36.91;;
66399;Laerm;54877;51.504;3.894;2023-04-01T00:30:14;35.47;33.99;37.28;;
66399;Laerm;54877;51.504;3.894;2023-04-01T00:32:39;35.45;33.88;36.75;;
66399;Laerm;54877;51.504;3.894;2023-04-01T00:35:05;35.45;33.98;37.00;;
66399;Laerm;54877;51.504;3.894;2023-04-01T00:37:30;35.48;34.16;39.06;;
66399;Laerm;54877;51.504;3.894;2023-04-01T00:39:56;35.46;33.82;36.65;;
66399;Laerm;54877;51.504;3.894;2023-04-01T00:42:22;35.48;33.97;38.97;;
66399;Laerm;54877;51.504;3.894;2023-04-01T00:44:51;36.62;34.18;47.64;;
66399;Laerm;54877;51.504;3.894;2023-04-01T00:47:17;36.70;34.05;47.87;;
66399;Laerm;54877;51.504;3.894;2023-04-01T00:49:48;35.44;33.95;36.88;;
66399;Laerm;54877;51.504;3.894;2023-04-01T00:52:17;35.44;34.03;36.95;;
66399;Laerm;54877;51.504;3.894;2023-04-01T00:54:46;35.46;33.73;37.45;;
66399;Laerm;54877;51.504;3.894;2023-04-01T00:57:21;35.46;33.99;37.05;;
66399;Laerm;54877;51.504;3.894;2023-04-01T00:59:50;35.61;33.80;49.03;;
66399;Laerm;54877;51.504;3.894;2023-04-01T01:02:19;35.67;33.93;40.72;;
66399;Laerm;54877;51.504;3.894;2023-04-01T01:04:45;35.47;34.12;36.82;;
66399;Laerm;54877;51.504;3.894;2023-04-01T01:28:48;35.43;33.90;37.02;;
66399;Laerm;54877;51.504;3.894;2023-04-01T01:31:30;35.47;33.71;39.99;;
66399;Laerm;54877;51.504;3.894;2023-04-01T01:36:38;35.45;33.75;36.77;;
66399;Laerm;54877;51.504;3.894;2023-04-01T01:39:07;35.42;34.21;36.69;;
66399;Laerm;54877;51.504;3.894;2023-04-01T01:41:35;35.43;33.94;37.02;;
66399;Laerm;54877;51.504;3.894;2023-04-01T01:44:05;35.44;34.11;40.22;;
66399;Laerm;54877;51.504;3.894;2023-04-01T01:46:32;35.52;34.17;44.57;;
66399;Laerm;54877;51.504;3.894;2023-04-01T01:49:00;35.42;34.20;40.52;;
66399;Laerm;54877;51.504;3.894;2023-04-01T01:51:27;35.46;34.13;36.67;;
66399;Laerm;54877;51.504;3.894;2023-04-01T01:53:53;35.47;34.06;38.68;;
66399;Laerm;54877;51.504;3.894;2023-04-01T01:56:23;35.47;34.15;40.36;;
66399;Laerm;54877;51.504;3.894;2023-04-01T01:59:04;36.02;34.00;51.15;;
66399;Laerm;54877;51.504;3.894;2023-04-01T02:01:35;35.50;33.89;41.89;;
66399;Laerm;54877;51.504;3.894;2023-04-01T02:04:02;35.51;34.09;38.21;;
66399;Laerm;54877;51.504;3.894;2023-04-01T02:06:32;35.50;34.18;39.09;;
66399;Laerm;54877;51.504;3.894;2023-04-01T02:09:04;35.52;34.08;37.65;;
66399;Laerm;54877;51.504;3.894;2023-04-01T02:11:33;35.54;33.96;41.83;;
66399;Laerm;54877;51.504;3.894;2023-04-01T02:14:10;35.96;34.30;49.95;;
66399;Laerm;54877;51.504;3.894;2023-04-01T02:16:41;35.92;34.12;58.51;;
66399;Laerm;54877;51.504;3.894;2023-04-01T02:19:10;35.70;33.81;40.56;;
66399;Laerm;54877;51.504;3.894;2023-04-01T02:21:39;35.47;34.19;37.68;;
66399;Laerm;54877;51.504;3.894;2023-04-01T02:24:08;35.47;33.94;37.82;;
66399;Laerm;54877;51.504;3.894;2023-04-01T02:26:35;35.58;34.05;44.24;;
66399;Laerm;54877;51.504;3.894;2023-04-01T02:29:01;35.61;34.07;38.24;;
66399;Laerm;54877;51.504;3.894;2023-04-01T02:31:29;35.98;34.28;38.77;;
66399;Laerm;54877;51.504;3.894;2023-04-01T02:33:55;35.83;34.26;41.11;;
66399;Laerm;54877;51.504;3.894;2023-04-01T02:36:20;35.55;34.21;40.83;;
66399;Laerm;54877;51.504;3.894;2023-04-01T02:38:46;35.52;34.24;41.00;;
66399;Laerm;54877;51.504;3.894;2023-04-01T02:41:12;35.55;34.25;40.12;;
66399;Laerm;54877;51.504;3.894;2023-04-01T02:43:38;35.51;34.15;36.90;;
66399;Laerm;54877;51.504;3.894;2023-04-01T02:46:04;35.55;34.14;38.06;;
66399;Laerm;54877;51.504;3.894;2023-04-01T02:48:29;35.65;34.26;41.20;;
66399;Laerm;54877;51.504;3.894;2023-04-01T02:50:55;35.67;34.12;40.52;;
66399;Laerm;54877;51.504;3.894;2023-04-01T02:53:21;35.64;34.26;38.89;;
66399;Laerm;54877;51.504;3.894;2023-04-01T02:55:46;35.57;34.13;39.47;;
66399;Laerm;54877;51.504;3.894;2023-04-01T02:58:14;35.53;34.14;36.85;;
66399;Laerm;54877;51.504;3.894;2023-04-01T03:00:40;35.76;34.10;40.67;;
66399;Laerm;54877;51.504;3.894;2023-04-01T03:03:07;36.07;34.61;44.26;;
66399;Laerm;54877;51.504;3.894;2023-04-01T03:05:33;35.65;34.29;39.54;;
66399;Laerm;54877;51.504;3.894;2023-04-01T03:07:58;35.54;34.09;38.71;;
66399;Laerm;54877;51.504;3.894;2023-04-01T03:10:23;35.64;34.14;38.31;;
66399;Laerm;54877;51.504;3.894;2023-04-01T03:12:49;35.53;34.10;39.01;;
66399;Laerm;54877;51.504;3.894;2023-04-01T03:15:14;35.53;34.22;40.15;;
66399;Laerm;54877;51.504;3.894;2023-04-01T03:17:41;35.61;34.24;51.27;;
66399;Laerm;54877;51.504;3.894;2023-04-01T03:20:08;35.55;34.00;40.49;;
66399;Laerm;54877;51.504;3.894;2023-04-01T03:22:34;35.52;33.90;38.01;;
66399;Laerm;54877;51.504;3.894;2023-04-01T03:25:01;35.57;34.09;41.68;;
66399;Laerm;54877;51.504;3.894;2023-04-01T03:27:26;35.75;34.00;45.84;;
66399;Laerm;54877;51.504;3.894;2023-04-01T03:29:52;35.56;34.05;48.61;;
66399;Laerm;54877;51.504;3.894;2023-04-01T03:32:17;35.79;34.18;52.13;;
66399;Laerm;54877;51.504;3.894;2023-04-01T03:34:42;35.60;33.99;39.65;;
66399;Laerm;54877;51.504;3.894;2023-04-01T03:37:08;35.67;34.37;38.71;;
66399;Laerm;54877;51.504;3.894;2023-04-01T03:39:33;35.58;33.81;37.26;;
66399;Laerm;54877;51.504;3.894;2023-04-01T03:41:59;35.60;33.78;39.38;;
66399;Laerm;54877;51.504;3.894;2023-04-01T03:44:25;35.58;34.06;39.12;;
66399;Laerm;54877;51.504;3.894;2023-04-01T03:46:51;35.79;34.11;47.53;;
66399;Laerm;54877;51.504;3.894;2023-04-01T03:49:16;35.59;34.06;40.91;;
66399;Laerm;54877;51.504;3.894;2023-04-01T03:51:42;35.60;34.04;40.94;;
66399;Laerm;54877;51.504;3.894;2023-04-01T03:54:09;35.70;34.28;41.04;;
66399;Laerm;54877;51.504;3.894;2023-04-01T03:56:34;35.78;34.12;49.52;;
66399;Laerm;54877;51.504;3.894;2023-04-01T03:59:05;36.48;34.29;49.12;;
66399;Laerm;54877;51.504;3.894;2023-04-01T04:01:31;36.64;34.20;48.96;;
66399;Laerm;54877;51.504;3.894;2023-04-01T04:03:56;35.54;33.69;37.68;;
66399;Laerm;54877;51.504;3.894;2023-04-01T04:06:22;35.58;33.91;44.39;;
66399;Laerm;54877;51.504;3.894;2023-04-01T04:08:49;35.69;33.87;41.16;;
66399;Laerm;54877;51.504;3.894;2023-04-01T04:11:14;35.66;34.00;55.84;;
66399;Laerm;54877;51.504;3.894;2023-04-01T04:13:40;35.64;34.30;46.21;;
66399;Laerm;54877;51.504;3.894;2023-04-01T04:16:06;35.60;34.02;37.81;;
66399;Laerm;54877;51.504;3.894;2023-04-01T04:18:32;35.60;34.15;45.89;;
66399;Laerm;54877;51.504;3.894;2023-04-01T04:20:58;35.53;34.19;37.28;;
66399;Laerm;54877;51.504;3.894;2023-04-01T04:23:23;35.54;34.01;38.31;;
66399;Laerm;54877;51.504;3.894;2023-04-01T04:28:25;36.38;34.26;63.91;;
66399;Laerm;54877;51.504;3.894;2023-04-01T04:30:51;35.56;34.19;40.70;;
66399;Laerm;54877;51.504;3.894;2023-04-01T04:33:16;40.84;34.02;75.17;;
66399;Laerm;54877;51.504;3.894;2023-04-01T04:35:42;47.65;34.20;80.02;;
66399;Laerm;54877;51.504;3.894;2023-04-01T04:38:07;35.59;34.16;37.54;;
66399;Laerm;54877;51.504;3.894;2023-04-01T04:40:32;43.06;34.33;78.40;;
66399;Laerm;54877;51.504;3.894;2023-04-01T04:42:58;36.56;34.11;63.87;;
66399;Laerm;54877;51.504;3.894;2023-04-01T04:45:23;35.56;34.25;37.34;;
66399;Laerm;54877;51.504;3.894;2023-04-01T04:47:48;35.65;34.14;39.51;;
66399;Laerm;54877;51.504;3.894;2023-04-01T04:50:14;35.68;34.25;40.25;;
66399;Laerm;54877;51.504;3.894;2023-04-01T04:52:39;35.64;33.83;43.88;;
66399;Laerm;54877;51.504;3.894;2023-04-01T04:55:05;35.80;34.24;40.61;;
66399;Laerm;54877;51.504;3.894;2023-04-01T04:57:31;35.71;34.41;39.16;;
66399;Laerm;54877;51.504;3.894;2023-04-01T04:59:56;35.69;34.27;37.73;;
66399;Laerm;54877;51.504;3.894;2023-04-01T05:02:21;39.88;34.37;56.35;;
66399;Laerm;54877;51.504;3.894;2023-04-01T05:04:47;35.80;34.17;41.20;;
66399;Laerm;54877;51.504;3.894;2023-04-01T05:07:12;35.98;34.35;50.63;;
66399;Laerm;54877;51.504;3.894;2023-04-01T05:09:38;35.62;34.03;36.94;;
66399;Laerm;54877;51.504;3.894;2023-04-01T05:12:03;35.62;34.32;40.48;;
66399;Laerm;54877;51.504;3.894;2023-04-01T05:14:28;35.65;34.31;39.28;;
66399;Laerm;54877;51.504;3.894;2023-04-01T05:16:54;35.74;34.27;37.37;;
66399;Laerm;54877;51.504;3.894;2023-04-01T05:19:19;35.69;34.14;42.63;;
66399;Laerm;54877;51.504;3.894;2023-04-01T05:21:45;35.74;34.30;37.46;;
66399;Laerm;54877;51.504;3.894;2023-04-01T05:24:10;35.77;34.35;37.45;;
66399;Laerm;54877;51.504;3.894;2023-04-01T05:26:35;35.72;34.28;37.15;;
66399;Laerm;54877;51.504;3.894;2023-04-01T05:29:02;35.65;34.05;37.85;;
66399;Laerm;54877;51.504;3.894;2023-04-01T05:31:28;40.19;34.36;59.11;;
66399;Laerm;54877;51.504;3.894;2023-04-01T05:33:53;36.88;34.40;53.30;;
66399;Laerm;54877;51.504;3.894;2023-04-01T05:36:19;35.89;34.35;39.70;;
66399;Laerm;54877;51.504;3.894;2023-04-01T05:38:44;35.90;34.49;39.21;;
66399;Laerm;54877;51.504;3.894;2023-04-01T05:41:14;36.13;34.32;42.11;;
66399;Laerm;54877;51.504;3.894;2023-04-01T05:43:41;36.38;34.33;45.17;;
66399;Laerm;54877;51.504;3.894;2023-04-01T05:46:06;35.83;34.40;39.57;;
66399;Laerm;54877;51.504;3.894;2023-04-01T05:48:35;35.76;34.34;37.95;;
66399;Laerm;54877;51.504;3.894;2023-04-01T05:51:01;35.72;34.29;40.83;;
66399;Laerm;54877;51.504;3.894;2023-04-01T05:53:26;36.24;34.35;44.72;;
66399;Laerm;54877;51.504;3.894;2023-04-01T05:55:52;40.44;34.21;53.83;;
66399;Laerm;54877;51.504;3.894;2023-04-01T05:58:17;36.34;34.18;47.73;;
66399;Laerm;54877;51.504;3.894;2023-04-01T06:00:43;37.52;34.15;49.68;;
66399;Laerm;54877;51.504;3.894;2023-04-01T06:03:08;35.99;34.37;51.41;;
66399;Laerm;54877;51.504;3.894;2023-04-01T06:05:43;35.84;34.20;43.66;;
66399;Laerm;54877;51.504;3.894;2023-04-01T06:08:15;39.33;34.33;56.74;;
66399;Laerm;54877;51.504;3.894;2023-04-01T06:19:15;40.70;34.29;59.46;;
66399;Laerm;54877;51.504;3.894;2023-04-01T06:48:24;36.18;34.27;50.19;;
66399;Laerm;54877;51.504;3.894;2023-04-01T06:53:33;42.30;34.35;55.59;;
66399;Laerm;54877;51.504;3.894;2023-04-01T06:56:08;35.85;34.40;40.30;;
66399;Laerm;54877;51.504;3.894;2023-04-01T06:58:42;35.87;34.12;40.03;;
66399;Laerm;54877;51.504;3.894;2023-04-01T07:02:16;42.05;34.40;60.04;;
66399;Laerm;54877;51.504;3.894;2023-04-01T07:04:23;36.20;34.22;50.42;;
66399;Laerm;54877;51.504;3.894;2023-04-01T07:06:58;35.67;34.33;44.41;;
66399;Laerm;54877;51.504;3.894;2023-04-01T07:09:35;39.76;34.18;55.94;;
66399;Laerm;54877;51.504;3.894;2023-04-01T07:12:06;35.69;33.88;42.78;;
66399;Laerm;54877;51.504;3.894;2023-04-01T07:14:37;35.79;34.25;42.44;;
66399;Laerm;54877;51.504;3.894;2023-04-01T07:17:14;35.92;34.38;50.05;;
66399;Laerm;54877;51.504;3.894;2023-04-01T07:22:32;40.08;33.84;55.80;;
66399;Laerm;54877;51.504;3.894;2023-04-01T07:25:05;35.85;34.06;44.00;;
66399;Laerm;54877;51.504;3.894;2023-04-01T07:27:36;42.45;34.35;58.33;;
66399;Laerm;54877;51.504;3.894;2023-04-01T07:30:01;42.92;34.39;61.81;;
66399;Laerm;54877;51.504;3.894;2023-04-01T07:32:35;41.69;34.11;59.93;;
66399;Laerm;54877;51.504;3.894;2023-04-01T07:35:23;37.75;33.98;52.42;;
66399;Laerm;54877;51.504;3.894;2023-04-01T07:38:14;35.80;34.17;43.36;;
66399;Laerm;54877;51.504;3.894;2023-04-01T07:49:35;39.56;34.31;57.03;;
66399;Laerm;54877;51.504;3.894;2023-04-01T07:57:46;35.83;34.37;43.51;;
66399;Laerm;54877;51.504;3.894;2023-04-01T08:03:07;38.08;34.39;53.13;;
66399;Laerm;54877;51.504;3.894;2023-04-01T08:05:49;40.41;34.13;58.42;;
66399;Laerm;54877;51.504;3.894;2023-04-01T08:13:35;35.97;34.27;50.47;;
66399;Laerm;54877;51.504;3.894;2023-04-01T08:21:31;42.29;34.18;59.95;;
66399;Laerm;54877;51.504;3.894;2023-04-01T08:24:02;42.11;34.01;58.91;;
66399;Laerm;54877;51.504;3.894;2023-04-01T08:26:39;43.66;34.30;60.42;;
66399;Laerm;54877;51.504;3.894;2023-04-01T08:29:19;39.46;34.16;56.75;;
66399;Laerm;54877;51.504;3.894;2023-04-01T08:31:55;35.64;34.18;41.60;;
66399;Laerm;54877;51.504;3.894;2023-04-01T08:34:26;40.95;34.29;58.75;;
66399;Laerm;54877;51.504;3.894;2023-04-01T08:37:01;38.92;34.33;54.03;;
66399;Laerm;54877;51.504;3.894;2023-04-01T08:39:37;40.21;34.16;54.43;;
66399;Laerm;54877;51.504;3.894;2023-04-01T08:45:26;41.22;34.22;60.27;;
66399;Laerm;54877;51.504;3.894;2023-04-01T08:51:02;40.18;34.49;57.72;;
66399;Laerm;54877;51.504;3.894;2023-04-01T08:56:18;38.39;34.10;51.25;;
66399;Laerm;54877;51.504;3.894;2023-04-01T09:06:52;36.69;33.87;51.92;;
66399;Laerm;54877;51.504;3.894;2023-04-01T09:12:25;38.04;34.12;52.46;;
66399;Laerm;54877;51.504;3.894;2023-04-01T09:20:48;40.87;34.12;61.24;;
66399;Laerm;54877;51.504;3.894;2023-04-01T09:34:52;43.51;34.12;57.30;;
66399;Laerm;54877;51.504;3.894;2023-04-01T09:37:20;35.44;33.83;48.11;;
66399;Laerm;54877;51.504;3.894;2023-04-01T10:02:44;39.73;34.09;56.74;;
66399;Laerm;54877;51.504;3.894;2023-04-01T10:05:34;38.64;33.69;56.21;;
66399;Laerm;54877;51.504;3.894;2023-04-01T10:10:57;38.71;33.90;54.16;;
66399;Laerm;54877;51.504;3.894;2023-04-01T10:19:43;40.05;33.83;54.90;;
66399;Laerm;54877;51.504;3.894;2023-04-01T10:22:29;40.06;33.61;59.35;;
66399;Laerm;54877;51.504;3.894;2023-04-01T10:33:51;37.88;33.87;66.21;;
66399;Laerm;54877;51.504;3.894;2023-04-01T10:36:58;42.06;34.04;59.57;;
66399;Laerm;54877;51.504;3.894;2023-04-01T10:48:22;43.84;33.84;66.75;;
66399;Laerm;54877;51.504;3.894;2023-04-01T10:57:10;36.61;33.78;48.11;;
66399;Laerm;54877;51.504;3.894;2023-04-01T11:28:20;41.00;33.65;59.63;;
66399;Laerm;54877;51.504;3.894;2023-04-01T11:34:19;40.29;33.83;56.59;;
66399;Laerm;54877;51.504;3.894;2023-04-01T11:37:10;39.52;33.99;57.02;;
66399;Laerm;54877;51.504;3.894;2023-04-01T11:42:34;36.74;34.06;52.81;;
66399;Laerm;54877;51.504;3.894;2023-04-01T11:58:36;39.22;33.80;55.11;;
66399;Laerm;54877;51.504;3.894;2023-04-01T12:04:04;36.95;33.75;52.94;;
66399;Laerm;54877;51.504;3.894;2023-04-01T12:12:59;45.15;33.82;63.90;;
66399;Laerm;54877;51.504;3.894;2023-04-01T12:26:23;40.70;34.00;55.83;;
66399;Laerm;54877;51.504;3.894;2023-04-01T12:31:47;36.82;33.85;53.65;;
66399;Laerm;54877;51.504;3.894;2023-04-01T12:34:42;43.71;33.70;62.34;;
66399;Laerm;54877;51.504;3.894;2023-04-01T12:45:55;35.70;33.96;49.71;;
66399;Laerm;54877;51.504;3.894;2023-04-01T13:02:01;41.27;33.49;57.09;;
66399;Laerm;54877;51.504;3.894;2023-04-01T13:13:04;40.60;32.98;60.05;;
66399;Laerm;54877;51.504;3.894;2023-04-01T13:21:20;39.77;33.52;56.35;;
66399;Laerm;54877;51.504;3.894;2023-04-01T13:23:59;42.71;33.59;55.88;;
66399;Laerm;54877;51.504;3.894;2023-04-01T13:29:27;40.65;33.46;59.26;;
66399;Laerm;54877;51.504;3.894;2023-04-01T13:35:41;39.83;33.72;58.38;;
66399;Laerm;54877;51.504;3.894;2023-04-01T13:46:42;35.69;33.42;44.68;;
66399;Laerm;54877;51.504;3.894;2023-04-01T13:55:22;39.86;33.49;60.62;;
66399;Laerm;54877;51.504;3.894;2023-04-01T14:12:26;39.23;33.89;54.89;;
66399;Laerm;54877;51.504;3.894;2023-04-01T14:22:46;35.61;33.73;44.25;;
66399;Laerm;54877;51.504;3.894;2023-04-01T14:45:06;38.62;33.60;54.22;;
66399;Laerm;54877;51.504;3.894;2023-04-01T14:47:58;35.87;34.02;42.39;;
66399;Laerm;54877;51.504;3.894;2023-04-01T14:50:27;37.06;33.65;53.42;;
66399;Laerm;54877;51.504;3.894;2023-04-01T14:52:58;36.12;33.79;56.81;;
66399;Laerm;54877;51.504;3.894;2023-04-01T14:58:10;35.76;33.98;42.76;;
66399;Laerm;54877;51.504;3.894;2023-04-01T15:01:00;42.56;33.96;59.89;;
66399;Laerm;54877;51.504;3.894;2023-04-01T15:11:48;35.94;33.88;48.08;;
66399;Laerm;54877;51.504;3.894;2023-04-01T15:14:37;40.42;34.10;55.35;;
66399;Laerm;54877;51.504;3.894;2023-04-01T15:17:16;41.19;34.15;59.47;;
66399;Laerm;54877;51.504;3.894;2023-04-01T15:31:16;40.49;34.06;59.67;;
66399;Laerm;54877;51.504;3.894;2023-04-01T15:36:47;38.86;34.17;54.36;;
66399;Laerm;54877;51.504;3.894;2023-04-01T15:39:18;39.35;34.03;55.34;;
66399;Laerm;54877;51.504;3.894;2023-04-01T15:42:16;42.40;34.02;59.04;;
66399;Laerm;54877;51.504;3.894;2023-04-01T15:45:08;43.68;33.86;63.11;;
66399;Laerm;54877;51.504;3.894;2023-04-01T15:47:46;35.78;33.83;47.99;;
66399;Laerm;54877;51.504;3.894;2023-04-01T15:50:31;39.06;34.00;57.37;;
66399;Laerm;54877;51.504;3.894;2023-04-01T15:59:01;40.56;35.23;49.66;;
66399;Laerm;54877;51.504;3.894;2023-04-01T16:07:16;39.09;35.05;42.37;;
66399;Laerm;54877;51.504;3.894;2023-04-01T16:18:17;41.13;35.39;46.45;;
66399;Laerm;54877;51.504;3.894;2023-04-01T16:21:21;44.69;37.71;62.60;;
66399;Laerm;54877;51.504;3.894;2023-04-01T16:23:55;41.67;35.27;51.20;;
66399;Laerm;54877;51.504;3.894;2023-04-01T16:26:31;42.27;34.93;60.14;;
66399;Laerm;54877;51.504;3.894;2023-04-01T16:32:50;43.28;34.99;58.47;;
66399;Laerm;54877;51.504;3.894;2023-04-01T16:35:43;38.47;34.43;43.90;;
66399;Laerm;54877;51.504;3.894;2023-04-01T16:38:24;39.64;34.49;45.46;;
66399;Laerm;54877;51.504;3.894;2023-04-01T16:41:24;43.23;35.09;58.49;;
66399;Laerm;54877;51.504;3.894;2023-04-01T16:43:53;39.57;34.27;49.28;;
66399;Laerm;54877;51.504;3.894;2023-04-01T16:46:40;38.16;34.06;47.58;;
66399;Laerm;54877;51.504;3.894;2023-04-01T16:51:46;37.39;34.11;51.28;;
66399;Laerm;54877;51.504;3.894;2023-04-01T16:54:28;42.28;33.87;56.83;;
66399;Laerm;54877;51.504;3.894;2023-04-01T16:57:21;41.67;34.74;56.02;;
66399;Laerm;54877;51.504;3.894;2023-04-01T17:00:17;37.85;34.43;46.81;;
66399;Laerm;54877;51.504;3.894;2023-04-01T17:02:56;45.68;34.26;80.25;;
66399;Laerm;54877;51.504;3.894;2023-04-01T17:05:39;40.57;33.87;59.62;;
66399;Laerm;54877;51.504;3.894;2023-04-01T17:08:41;35.78;33.82;48.37;;
66399;Laerm;54877;51.504;3.894;2023-04-01T17:11:18;35.38;33.94;38.85;;
66399;Laerm;54877;51.504;3.894;2023-04-01T17:16:31;35.46;33.90;43.65;;
66399;Laerm;54877;51.504;3.894;2023-04-01T17:28:04;35.75;33.91;42.09;;
66399;Laerm;54877;51.504;3.894;2023-04-01T17:30:37;35.59;33.94;50.75;;
66399;Laerm;54877;51.504;3.894;2023-04-01T17:42:04;36.13;33.99;42.48;;
66399;Laerm;54877;51.504;3.894;2023-04-01T17:47:49;35.62;33.84;43.22;;
66399;Laerm;54877;51.504;3.894;2023-04-01T17:50:22;38.01;33.99;53.15;;
66399;Laerm;54877;51.504;3.894;2023-04-01T17:53:07;36.99;33.94;51.99;;
66399;Laerm;54877;51.504;3.894;2023-04-01T17:55:45;39.70;33.86;55.04;;
66399;Laerm;54877;51.504;3.894;2023-04-01T17:58:30;35.51;33.82;47.90;;
66399;Laerm;54877;51.504;3.894;2023-04-01T18:06:46;35.77;34.05;43.64;;
66399;Laerm;54877;51.504;3.894;2023-04-01T18:20:54;35.30;33.69;37.14;;
66399;Laerm;54877;51.504;3.894;2023-04-01T18:23:43;35.59;33.89;50.04;;
66399;Laerm;54877;51.504;3.894;2023-04-01T18:26:23;37.88;33.91;57.52;;
66399;Laerm;54877;51.504;3.894;2023-04-01T18:28:54;42.36;33.80;60.35;;
66399;Laerm;54877;51.504;3.894;2023-04-01T18:31:25;35.33;33.85;40.11;;
66399;Laerm;54877;51.504;3.894;2023-04-01T18:36:59;35.59;33.79;52.87;;
66399;Laerm;54877;51.504;3.894;2023-04-01T18:39:37;35.42;33.82;40.02;;
66399;Laerm;54877;51.504;3.894;2023-04-01T18:44:57;42.04;34.11;60.40;;
66399;Laerm;54877;51.504;3.894;2023-04-01T18:50:36;36.98;34.06;52.55;;
66399;Laerm;54877;51.504;3.894;2023-04-01T18:56:01;38.96;33.71;55.01;;
66399;Laerm;54877;51.504;3.894;2023-04-01T18:58:49;35.41;33.87;40.13;;
66399;Laerm;54877;51.504;3.894;2023-04-01T19:07:45;35.35;33.53;39.78;;
66399;Laerm;54877;51.504;3.894;2023-04-01T19:11:35;35.35;33.91;38.43;;
66399;Laerm;54877;51.504;3.894;2023-04-01T19:21:44;35.53;33.60;43.19;;
66399;Laerm;54877;51.504;3.894;2023-04-01T19:27:14;35.39;34.11;36.91;;
66399;Laerm;54877;51.504;3.894;2023-04-01T19:35:26;41.15;33.78;59.45;;
66399;Laerm;54877;51.504;3.894;2023-04-01T19:40:51;35.40;34.00;39.93;;
66399;Laerm;54877;51.504;3.894;2023-04-01T19:43:49;35.53;33.75;45.06;;
66399;Laerm;54877;51.504;3.894;2023-04-01T20:00:30;36.66;33.89;62.24;;
66399;Laerm;54877;51.504;3.894;2023-04-01T20:05:33;35.50;34.15;39.29;;
66399;Laerm;54877;51.504;3.894;2023-04-01T20:08:12;39.72;34.10;65.72;;
66399;Laerm;54877;51.504;3.894;2023-04-01T20:10:53;35.42;34.09;36.93;;
66399;Laerm;54877;51.504;3.894;2023-04-01T20:13:41;35.78;34.21;45.25;;
66399;Laerm;54877;51.504;3.894;2023-04-01T20:16:09;35.47;34.16;36.91;;
66399;Laerm;54877;51.504;3.894;2023-04-01T20:18:41;35.41;34.03;36.62;;
66399;Laerm;54877;51.504;3.894;2023-04-01T20:21:30;38.20;34.03;54.36;;
66399;Laerm;54877;51.504;3.894;2023-04-01T20:26:43;35.40;33.92;40.80;;
66399;Laerm;54877;51.504;3.894;2023-04-01T20:29:12;35.46;33.79;37.27;;
66399;Laerm;54877;51.504;3.894;2023-04-01T20:31:41;38.14;33.79;54.53;;
66399;Laerm;54877;51.504;3.894;2023-04-01T20:51:06;35.81;34.10;39.39;;
66399;Laerm;54877;51.504;3.894;2023-04-01T20:53:50;35.48;34.09;37.58;;
66399;Laerm;54877;51.504;3.894;2023-04-01T20:58:51;35.41;34.01;37.24;;
66399;Laerm;54877;51.504;3.894;2023-04-01T21:01:40;35.83;33.99;41.73;;
66399;Laerm;54877;51.504;3.894;2023-04-01T21:14:04;37.59;33.84;57.87;;
66399;Laerm;54877;51.504;3.894;2023-04-01T21:16:26;35.37;33.79;37.42;;
66399;Laerm;54877;51.504;3.894;2023-04-01T21:33:15;36.66;33.88;56.39;;
66399;Laerm;54877;51.504;3.894;2023-04-01T21:38:56;36.06;34.13;49.55;;
66399;Laerm;54877;51.504;3.894;2023-04-01T21:53:19;36.14;33.99;44.27;;
66399;Laerm;54877;51.504;3.894;2023-04-01T22:04:02;35.17;33.74;37.33;;
66399;Laerm;54877;51.504;3.894;2023-04-01T22:09:08;35.57;33.85;38.63;;
66399;Laerm;54877;51.504;3.894;2023-04-01T22:11:52;35.22;33.88;37.27;;
66399;Laerm;54877;51.504;3.894;2023-04-01T22:17:28;35.28;33.85;36.68;;
66399;Laerm;54877;51.504;3.894;2023-04-01T22:25:17;35.09;33.65;36.67;;
66399;Laerm;54877;51.504;3.894;2023-04-01T22:27:55;38.93;33.69;56.72;;
66399;Laerm;54877;51.504;3.894;2023-04-01T22:30:24;35.26;33.67;37.27;;
66399;Laerm;54877;51.504;3.894;2023-04-01T22:47:06;35.11;33.33;41.04;;
66399;Laerm;54877;51.504;3.894;2023-04-01T22:49:42;35.02;33.57;49.05;;
66399;Laerm;54877;51.504;3.894;2023-04-01T22:52:37;40.58;33.57;57.62;;
66399;Laerm;54877;51.504;3.894;2023-04-01T22:57:53;35.02;33.60;42.45;;
66399;Laerm;54877;51.504;3.894;2023-04-01T23:05:52;34.83;33.24;36.26;;
66399;Laerm;54877;51.504;3.894;2023-04-01T23:11:20;35.00;33.51;43.60;;
66399;Laerm;54877;51.504;3.894;2023-04-01T23:16:32;34.81;33.30;36.15;;
66399;Laerm;54877;51.504;3.894;2023-04-01T23:19:13;34.82;33.28;39.97;;
66399;Laerm;54877;51.504;3.894;2023-04-01T23:21:45;42.63;33.22;78.04;;
66399;Laerm;54877;51.504;3.894;2023-04-01T23:25:04;35.00;33.36;47.97;;
66399;Laerm;54877;51.504;3.894;2023-04-01T23:27:27;34.78;33.08;36.37;;
66399;Laerm;54877;51.504;3.894;2023-04-01T23:29:55;44.21;33.27;65.06;;
66399;Laerm;54877;51.504;3.894;2023-04-01T23:32:25;34.79;33.21;36.75;;
66399;Laerm;54877;51.504;3.894;2023-04-01T23:34:57;34.79;33.25;36.16;;
66399;Laerm;54877;51.504;3.894;2023-04-01T23:37:23;34.76;33.16;36.23;;
66399;Laerm;54877;51.504;3.894;2023-04-01T23:39:52;34.74;33.29;36.12;;
66399;Laerm;54877;51.504;3.894;2023-04-01T23:42:22;34.76;33.37;36.28;;
66399;Laerm;54877;51.504;3.894;2023-04-01T23:44:51;34.77;33.48;36.52;;
66399;Laerm;54877;51.504;3.894;2023-04-01T23:47:23;34.95;33.09;45.88;;
66399;Laerm;54877;51.504;3.894;2023-04-01T23:49:59;34.77;33.23;39.09;;
66399;Laerm;54877;51.504;3.894;2023-04-01T23:52:28;34.80;33.09;36.42;;
66399;Laerm;54877;51.504;3.894;2023-04-01T23:54:58;34.73;33.21;36.12;;
66399;Laerm;54877;51.504;3.894;2023-04-01T23:57:32;34.73;33.28;36.13;;
